Aviation Digital Data Service (ADDS)

Output produced by METARs form (1422 UTC 07 December 2016)
found at http://www.aviationweather.gov/adds/metars/
 
KSEG 071402Z AUTO 00000KT 3SM BR OVC006 03/03 A3001 RMK AO2 CIG 004V010 T00330033
KSEG 071353Z AUTO 00000KT 2 1/2SM BR OVC008 04/04 A3001 RMK AO2 CIG 004V010 SLP166 T00390039
KSEG 071343Z AUTO 00000KT 2SM BR OVC008 03/03 A3000 RMK AO2 T00330033
KSEG 071324Z AUTO 00000KT 1 3/4SM BR OVC009 02/02 A3000 RMK AO2 CIG 007V011 T00220022
KSEG 071253Z AUTO 00000KT 2SM BR OVC007 03/03 A2999 RMK AO2 CIG 004V011 SLP160 T00280028
KSEG 071250Z AUTO 00000KT 2SM BR BKN005 OVC010 02/02 A3000 RMK AO2 CIG 004V008
KSEG 071235Z AUTO 00000KT 3SM BR OVC005 02/02 A3000 RMK AO2 CIG 004V010 T00220022
KSEG 071204Z AUTO 00000KT 3SM BR BKN004 OVC018 02/02 A2999 RMK AO2 T00220022 $
KSEG 071153Z AUTO 00000KT 3SM BR BKN005 OVC019 02/02 A2998 RMK AO2 SLP155 60001 70034 I6000 T00220022 10022 20011 53019 $
KSEG 071143Z AUTO 00000KT 3SM BR FEW005 OVC018 02/02 A2997 RMK AO2 T00220022 $
KSEG 071138Z AUTO 00000KT 2 1/2SM BR OVC018 02/02 A2997 RMK AO2 T00220022 $
KSEG 071126Z AUTO 00000KT 3SM BR FEW006 OVC018 02/02 A2997 RMK AO2 T00220022 $
KSEG 071115Z AUTO 00000KT 2 1/2SM BR SCT006 OVC018 02/02 A2996 RMK AO2 T00170017 $
KSEG 071107Z AUTO 00000KT 2 1/2SM BR BKN006 BKN013 OVC018 02/02 A2995 RMK AO2 CIG 003V010 T00220022 $
KSEG 071053Z AUTO 00000KT 2SM BR BKN004 OVC018 02/02 A2995 RMK AO2 SLP146 T00170017 $
KSEG 071040Z AUTO 00000KT 2SM BR SCT005 OVC018 02/02 A2994 RMK AO2 T00170017 $
KSEG 071029Z AUTO 00000KT 2SM BR BKN005 OVC020 02/02 A2993 RMK AO2 T00220022 $
KSEG 070953Z AUTO 00000KT 2 1/2SM BR BKN006 OVC015 02/02 A2994 RMK AO2 RAE16 SLP141 P0001 T00170017 $
KSEG 070937Z AUTO 00000KT 2 1/2SM BR OVC007 02/02 A2994 RMK AO2 RAE16 P0001 T00170017 $
KSEG 070921Z AUTO 00000KT 1 1/2SM BR OVC007 02/02 A2993 RMK AO2 RAE16 P0001 T00170017 $
KSEG 070853Z AUTO 00000KT 1 1/4SM -RA BR OVC005 02/02 A2992 RMK AO2 RAB51 SLP136 P0000 60000 I1000 I3000 T00170017 53010 $
KSEG 070840Z AUTO 00000KT 1 1/4SM BR OVC006 02/02 A2992 RMK AO2 I1000 T00170017 $
KSEG 070812Z AUTO 00000KT 1 1/4SM BR OVC003 02/02 A2991 RMK AO2 T00170017 $
KSEG 070753Z AUTO 00000KT 1SM BR BKN005 OVC009 02/02 A2991 RMK AO2 SLP130 T00170017 $
KSEG 070723Z AUTO 00000KT 1SM BR OVC007 01/01 A2991 RMK AO2 T00110011
KSEG 070707Z AUTO 00000KT 1 1/4SM BR BKN006 OVC017 01/01 A2990 RMK AO2 T00110011
KSEG 070653Z AUTO 00000KT 1 1/2SM BR BKN005 OVC010 01/01 A2989 RMK AO2 SLP126 T00110011
KSEG 070616Z AUTO 33003KT 1 1/2SM BR OVC006 01/01 A2988 RMK AO2 T00110011
KSEG 070553Z AUTO 00000KT 1 1/2SM BR OVC005 01/01 A2988 RMK AO2 RAB00E38UPB38E52 SLP120 P0000 60006 I1000 I6001 T00110011 10017 20006 52007
KSEG 070536Z AUTO 00000KT 1 1/2SM -RA BR BKN005 OVC011 01/01 A2987 RMK AO2 RAB00 CIG 003V007 P0000 T00110011
KSEG 070521Z AUTO 00000KT 1 1/4SM -RA BR OVC009 01/01 A2987 RMK AO2 RAB00 P0000 T00110011
KSEG 070453Z AUTO 00000KT 2 1/2SM BR BKN007 OVC014 01/01 A2987 RMK AO2 SLP120 T00110011 400281044
KSEG 070439Z AUTO 00000KT 2SM BR SCT005 OVC014 01/01 A2987 RMK AO2 T00110011
KSEG 070403Z AUTO 31003KT 2SM BR BKN004 OVC016 01/01 A2986 RMK AO2 T00110011
KSEG 070353Z AUTO 00000KT 2SM BR SCT004 OVC016 01/01 A2985 RMK AO2 RAB0259E45UPB45E47 SLP113 P0001 I1000 T00110011
KSEG 070348Z AUTO 00000KT 2SM BR SCT005 OVC016 01/01 A2985 RMK AO2 RAB0259E45UPB45E47 P0001 I1000
KSEG 070331Z AUTO 02003KT 2SM -RA BR OVC015 01/01 A2986 RMK AO2 RAB0259 P0001 I1000 T00110011
KSEG 070324Z AUTO 35003KT 1 3/4SM -RA BR OVC015 01/01 A2987 RMK AO2 RAB0259 P0001 I1000 T00110011
KSEG 070317Z AUTO 35003KT 2SM -RA BR OVC017 01/01 A2987 RMK AO2 RAB0259 P0001 T00110011
KSEG 070253Z AUTO 31003KT 5SM BR BKN019 OVC040 02/02 A2987 RMK AO2 RAE0156 SLP119 P0000 60005 I3001 T00170017 55013
KSEG 070232Z AUTO 31003KT 4SM BR SCT019 BKN029 OVC041 01/01 A2986 RMK AO2 RAE0156 P0000 T00110011
KSEG 070153Z AUTO 03004KT 4SM -RA BR FEW005 BKN033 OVC047 01/01 A2986 RMK AO2 SLP116 P0001 T00110011
KSEG 070124Z AUTO 35004KT 3SM -RA BR SCT006 BKN035 OVC043 01/01 A2988 RMK AO2 P0001 T00060006
KSEG 070111Z AUTO 30003KT 3SM -RA BR BKN004 OVC034 01/01 A2989 RMK AO2 P0001 T00060006
KSEG 070101Z AUTO 35003KT 2 1/2SM -RA BR SCT004 BKN018 OVC034 01/01 A2989 RMK AO2 P0000 T00060006
KSEG 070053Z AUTO 00000KT 3SM -RA BR SCT004 BKN008 OVC031 01/01 A2989 RMK AO2 SLP126 P0004 I1001 T00110011
KSEG 070041Z AUTO 00000KT 3SM -RA BR FEW006 BKN018 OVC033 01/01 A2990 RMK AO2 P0003 I1000 T00110011
KSEG 062353Z AUTO 33004KT 4SM -RA BR BKN037 OVC050 01/01 A2991 RMK AO2 RAB2259FZRAE2259 SLP133 P0004 60027 I1000 I6000 T00110011 10028 20006 55003
KSEG 062305Z AUTO 34003KT 5SM -RA BR FEW036 OVC055 01/01 A2991 RMK AO2 RAB2259FZRAE2259 P0001 I1000 T00110011
KSEG 062253Z AUTO 35003KT 4SM -FZRA BR OVC060 01/01 A2990 RMK AO2 RAE36FZRAB36 SLP131 P0010 I1000 T00110011
KSEG 062237Z AUTO 32004KT 3SM FZRA BR FEW023 OVC060 01/01 A2991 RMK AO2 RAE36FZRAB36 P0009 I1000 T00110011
KSEG 062228Z AUTO 35004KT 3SM RA BR FEW023 SCT034 OVC055 01/01 A2990 RMK AO2 P0008 T00060006
KSEG 062153Z AUTO 30003KT 4SM RA BR BKN024 BKN034 OVC060 02/02 A2992 RMK AO2 SLP136 P0006 I1000 T00170017
KSEG 062137Z AUTO 31003KT 4SM -RA BR FEW024 SCT036 OVC065 02/02 A2991 RMK AO2 P0004 I1000 T00170017
KSEG 062053Z AUTO 00000KT 2SM -RA BR FEW021 SCT027 OVC065 02/02 A2992 RMK AO2 SLP138 P0005 60007 I1000 I3000 T00170017 56003
KSEG 062041Z AUTO 33003KT 2 1/2SM -RA BR BKN025 BKN036 OVC065 02/02 A2993 RMK AO2 P0005 I1000 T00170017
KSEG 062019Z AUTO 00000KT 3SM -RA BR BKN026 OVC070 02/02 A2993 RMK AO2 P0003 I1000 T00170017
KSEG 061953Z AUTO 00000KT 4SM -RA BR FEW031 OVC070 03/02 A2993 RMK AO2 SLP140 P0001 T00280022
KSEG 061853Z AUTO 00000KT 7SM -RA OVC090 03/01 A2993 RMK AO2 SLP141 P0001 T00280011
KSEG 061753Z AUTO 00000KT 9SM -RA BKN080 OVC095 03/01 A2999 RMK AO2 RAB23 PRESFR SLP158 P0000 60000 T00280011 10028 21033 58036
KSEG 061653Z AUTO 00000KT 10SM CLR 03/01 A3003 RMK AO2 SLP172 T00280006
KSEG 061553Z AUTO 00000KT 10SM CLR 02/01 A3006 RMK AO2 SLP184 T00220011
KSEG 061453Z AUTO 00000KT 7SM CLR 00/00 A3009 RMK AO2 SLP195 T00000000 58007
KSEG 061353Z AUTO 00000KT 5SM BR CLR M01/M01 A3010 RMK AO2 SLP199 T10111011
KSEG 061253Z AUTO 34003KT 5SM BR CLR M03/M03 A3011 RMK AO2 SLP201 T10281028
KSEG 061153Z AUTO 32003KT 8SM CLR M03/M03 A3011 RMK AO2 SLP203 I6000 T10331033 11022 21044 58008
KSEG 061053Z AUTO 00000KT 7SM FEW001 M03/M03 A3013 RMK AO2 SLP206 T10281033
KSEG 061046Z AUTO 00000KT 7SM SCT001 M04/M04 A3013 RMK AO2 T10391039
KSEG 061022Z AUTO 00000KT 7SM BKN002 M04/M04 A3013 RMK AO2 T10441044
KSEG 061014Z AUTO 00000KT 7SM SCT002 M04/M04 A3013 RMK AO2 T10441044
KSEG 060953Z AUTO 32003KT 7SM CLR M04/M04 A3014 RMK AO2 SLP212 I1000 T10441044
KSEG 060940Z AUTO 00000KT 6SM BR SCT003 M04/M04 A3014 RMK AO2 I1000 T10441044
KSEG 060918Z AUTO 00000KT 6SM BR BKN002 M04/M04 A3013 RMK AO2 T10391039
KSEG 060909Z AUTO 00000KT 6SM BR SCT002 M04/M04 A3014 RMK AO2 T10391039
KSEG 060853Z AUTO 00000KT 7SM CLR M04/M04 A3014 RMK AO2 SLP210 I1000 I3000 T10391039 53001
KSEG 060753Z AUTO 00000KT 7SM CLR M04/M04 A3015 RMK AO2 SLP213 I1000 T10391039
KSEG 060653Z AUTO 00000KT 7SM CLR M03/M03 A3013 RMK AO2 SLP205 I1000 T10331033
KSEG 060553Z AUTO 00000KT 8SM CLR M03/M03 A3014 RMK AO2 SLP209 I1000 I6000 T10281028 10006 21028 50007
KSEG 060453Z AUTO 00000KT 9SM CLR M02/M02 A3014 RMK AO2 SLP210 T10221022 400891028
KSEG 060353Z AUTO 00000KT 10SM CLR M02/M02 A3013 RMK AO2 SLP205 T10171017
KSEG 060253Z AUTO 00000KT 10SM CLR M01/M01 A3012 RMK AO2 SLP202 T10111011 51009